Ghotki Weather



Ghotki's Current Weather

Temprature 31o haze

haze

Rain: 0 %

Min Temprature31o
Max Temprature31o
Humidity52
Wind Speed4.1 m/h
Sun Rise06:24:17
Sun Set17:51:21
Current Time: 18-Oct-2019 16:05:25
Lat/Lon: 28.01, 69.32




Ghotki's Geo Location



Ghotki's Weather Forecast

Time Overall Temp Min Temp Max Temp Humidity Wind Speed Rain
18-Oct-2019 (Fri)
17:00:00 clear sky 30.690 30.690 36.920 8 1.16 m/h 0 %
20:00:00 clear sky 24.750 24.750 29.420 11 3.85 m/h 0 %
23:00:00 clear sky 24.790 24.790 27.908 25 4.46 m/h 0 %
19-Oct-2019 (Sat)
02:00:00 clear sky 25.970 25.970 27.528 33 8.36 m/h 0 %
05:00:00 clear sky 25.603 25.603 25.603 36 6.58 m/h 0 %
08:00:00 clear sky 26.631 26.631 26.631 34 7.11 m/h 0 %
11:00:00 clear sky 34.320 34.320 34.320 20 5.88 m/h 0 %
14:00:00 clear sky 37.216 37.216 37.216 14 4.08 m/h 0 %
17:00:00 clear sky 35.782 35.782 35.782 14 4.82 m/h 0 %
20:00:00 clear sky 29.348 29.348 29.348 21 3.13 m/h 0 %
23:00:00 scattered clouds 28.587 28.587 28.587 22 3.31 m/h 0 %
20-Oct-2019 (Sun)
02:00:00 overcast clouds 27.077 27.077 27.077 25 2.89 m/h 0 %
05:00:00 broken clouds 23.804 23.804 23.804 31 1.3 m/h 0 %
08:00:00 clear sky 27.642 27.642 27.642 27 3.09 m/h 0 %
11:00:00 clear sky 34.390 34.390 34.390 17 2.87 m/h 0 %
14:00:00 clear sky 37.272 37.272 37.272 11 0.16 m/h 0 %
17:00:00 clear sky 35.848 35.848 35.848 12 0.37 m/h 0 %
20:00:00 clear sky 29.262 29.262 29.262 18 2.62 m/h 0 %
23:00:00 clear sky 27.937 27.937 27.937 18 1.74 m/h 0 %
21-Oct-2019 (Mon)
02:00:00 clear sky 26.000 26.000 26.000 20 0.18 m/h 0 %
05:00:00 clear sky 25.111 25.111 25.111 21 1.07 m/h 0 %
08:00:00 clear sky 29.229 29.229 29.229 16 1.41 m/h 0 %
11:00:00 clear sky 36.127 36.127 36.127 10 2.96 m/h 0 %
14:00:00 clear sky 37.935 37.935 37.935 9 3.07 m/h 0 %
17:00:00 clear sky 36.264 36.264 36.264 9 3.98 m/h 0 %
20:00:00 clear sky 28.034 28.034 28.034 17 0.79 m/h 0 %
23:00:00 clear sky 27.020 27.020 27.020 18 0.53 m/h 0 %
22-Oct-2019 (Tue)
02:00:00 clear sky 26.006 26.006 26.006 20 1.93 m/h 0 %
05:00:00 clear sky 23.969 23.969 23.969 27 0.9 m/h 0 %
08:00:00 clear sky 28.392 28.392 28.392 29 2.23 m/h 0 %
11:00:00 clear sky 36.379 36.379 36.379 15 4.33 m/h 0 %
14:00:00 clear sky 38.309 38.309 38.309 9 3.54 m/h 0 %
17:00:00 clear sky 36.622 36.622 36.622 10 2.38 m/h 0 %
20:00:00 clear sky 28.650 28.650 28.650 16 0.88 m/h 0 %
23:00:00 clear sky 28.419 28.419 28.419 17 3.05 m/h 0 %
23-Oct-2019 (Wed)
02:00:00 clear sky 26.356 26.356 26.356 23 3.02 m/h 0 %
05:00:00 clear sky 24.687 24.687 24.687 29 3.78 m/h 0 %
08:00:00 clear sky 27.749 27.749 27.749 22 3.43 m/h 0 %
11:00:00 clear sky 35.755 35.755 35.755 10 4.01 m/h 0 %
14:00:00 clear sky 38.219 38.219 38.219 6 6.02 m/h 0 %

Famous Cities (61)